Time;durP1;ratioP1;P1;durP2;ratioP2;P2;SDS_P1;SDS_P2;PMS_P1;PMS_P2;Temp;Humidity;BMP_temperature;BMP_pressure;BME280_temperature;BME280_humidity;BME280_pressure;Samples;Min_cycle;Max_cycle;Signal;HPM_P1;HPM_P2
2021/11/03 00:01:50;;;;;;;;;20.75;18.75;;;;;;;;5076763;28;47998;-71
2021/11/03 00:04:17;;;;;;;;;24.00;20.25;;;;;;;;5078194;27;45312;-71
2021/11/03 00:06:43;;;;;;;;;22.25;18.75;;;;;;;;5078264;27;45418;-73
2021/11/03 00:09:09;;;;;;;;;21.75;15.00;;;;;;;;5078040;27;45429;-72
2021/11/03 00:11:35;;;;;;;;;16.25;14.25;;;;;;;;5077988;27;46012;-72
2021/11/03 00:14:01;;;;;;;;;17.25;15.00;;;;;;;;5077220;27;45438;-72
2021/11/03 00:16:26;;;;;;;;;20.25;18.50;;;;;;;;5077107;27;45235;-71
2021/11/03 00:18:52;;;;;;;;;19.00;15.00;;;;;;;;5075809;27;45386;-70
2021/11/03 00:21:17;;;;;;;;;21.00;16.75;;;;;;;;5076041;28;45392;-73
2021/11/03 00:23:42;;;;;;;;;18.25;16.50;;;;;;;;5076427;27;45377;-70
2021/11/03 00:26:08;;;;;;;;;21.00;16.75;;;;;;;;5077663;27;45362;-72
2021/11/03 00:28:33;;;;;;;;;20.00;16.75;;;;;;;;5077897;27;45588;-69
2021/11/03 00:30:58;;;;;;;;;22.25;20.00;;;;;;;;5077808;27;45357;-70
2021/11/03 00:33:25;;;;;;;;;20.50;16.00;;;;;;;;5076502;28;45393;-72
2021/11/03 00:35:51;;;;;;;;;18.25;16.25;;;;;;;;5077729;27;45354;-70
2021/11/03 00:38:16;;;;;;;;;17.50;14.50;;;;;;;;5076150;27;45457;-69
2021/11/03 00:40:41;;;;;;;;;14.25;13.75;;;;;;;;5077100;28;45359;-70
2021/11/03 00:43:07;;;;;;;;;14.50;13.00;;;;;;;;5076271;27;45444;-69
2021/11/03 00:45:32;;;;;;;;;18.00;14.25;;;;;;;;5077664;27;45296;-70
2021/11/03 00:47:57;;;;;;;;;13.25;12.00;;;;;;;;5077475;28;45318;-71
2021/11/03 00:50:23;;;;;;;;;25.00;21.25;;;;;;;;5075593;28;46815;-71
2021/11/03 00:52:48;;;;;;;;;19.00;16.00;;;;;;;;5076949;27;45412;-72
2021/11/03 00:55:14;;;;;;;;;22.50;18.25;;;;;;;;5077341;27;45428;-73
2021/11/03 00:57:39;;;;;;;;;15.25;14.00;;;;;;;;5076220;27;45445;-71
2021/11/03 01:00:07;;;;;;;;;19.25;17.50;;;;;;;;5077053;28;45267;-71
2021/11/03 01:02:32;;;;;;;;;17.00;16.75;;;;;;;;5076461;27;45229;-71
2021/11/03 01:04:58;;;;;;;;;19.25;16.00;;;;;;;;5076934;28;45237;-71
2021/11/03 01:07:23;;;;;;;;;21.00;16.75;;;;;;;;5077250;28;45294;-71
2021/11/03 01:09:48;;;;;;;;;25.25;23.25;;;;;;;;5076643;28;46164;-71
2021/11/03 01:12:13;;;;;;;;;24.25;15.75;;;;;;;;5076803;27;45352;-71
2021/11/03 01:14:38;;;;;;;;;20.50;16.00;;;;;;;;5077094;27;45250;-70
2021/11/03 01:17:04;;;;;;;;;19.50;16.75;;;;;;;;5077355;28;45271;-70
2021/11/03 01:19:29;;;;;;;;;18.00;14.00;;;;;;;;5076512;27;46073;-70
2021/11/03 01:21:55;;;;;;;;;16.25;14.50;;;;;;;;5076804;28;45233;-72
2021/11/03 01:24:20;;;;;;;;;19.50;14.75;;;;;;;;5075505;27;45249;-71
2021/11/03 01:26:45;;;;;;;;;17.00;15.50;;;;;;;;5077152;28;45367;-71
2021/11/03 01:29:10;;;;;;;;;16.25;14.50;;;;;;;;5075307;27;46002;-71
2021/11/03 01:31:36;;;;;;;;;19.50;19.50;;;;;;;;5075495;27;45183;-70
2021/11/03 01:34:02;;;;;;;;;17.50;14.75;;;;;;;;5076994;27;45690;-69
2021/11/03 01:36:27;;;;;;;;;18.25;16.75;;;;;;;;5077061;28;45300;-69
2021/11/03 01:38:53;;;;;;;;;22.25;17.00;;;;;;;;5076423;27;46343;-69
2021/11/03 01:41:18;;;;;;;;;18.75;15.75;;;;;;;;5076470;27;45337;-68
2021/11/03 01:43:45;;;;;;;;;15.75;15.75;;;;;;;;5076543;27;45348;-71
2021/11/03 01:46:20;;;;;;;;;18.75;16.75;;;;;;;;5076643;27;45521;-69
2021/11/03 01:48:45;;;;;;;;;17.00;16.25;;;;;;;;5076088;28;45424;-70
2021/11/03 01:51:15;;;;;;;;;17.75;14.25;;;;;;;;5076118;28;45436;-69
2021/11/03 01:53:40;;;;;;;;;14.00;13.75;;;;;;;;5075131;28;45216;-69
2021/11/03 01:56:07;;;;;;;;;13.25;13.25;;;;;;;;5076873;28;45651;-69
2021/11/03 01:58:43;;;;;;;;;17.00;14.50;;;;;;;;5076297;27;45504;-69
2021/11/03 02:01:09;;;;;;;;;16.50;15.00;;;;;;;;5075956;28;46060;-72
2021/11/03 02:03:34;;;;;;;;;14.25;12.50;;;;;;;;5076531;27;45282;-71
2021/11/03 02:06:02;;;;;;;;;17.00;15.75;;;;;;;;5076301;27;45567;-72
2021/11/03 02:08:29;;;;;;;;;18.50;15.00;;;;;;;;5075645;27;46654;-73
2021/11/03 02:10:55;;;;;;;;;15.00;15.00;;;;;;;;5075858;28;45395;-73
2021/11/03 02:13:20;;;;;;;;;19.00;16.25;;;;;;;;5076067;28;45232;-73
2021/11/03 02:15:45;;;;;;;;;19.75;18.25;;;;;;;;5076067;28;45428;-73
2021/11/03 02:18:12;;;;;;;;;18.75;15.50;;;;;;;;5075493;27;45393;-72
2021/11/03 02:20:39;;;;;;;;;16.00;14.50;;;;;;;;5074765;28;45312;-72
2021/11/03 02:23:07;;;;;;;;;15.75;15.25;;;;;;;;5076346;27;45409;-73
2021/11/03 02:25:35;;;;;;;;;13.00;11.75;;;;;;;;5076141;27;45397;-71
2021/11/03 02:28:02;;;;;;;;;15.00;12.00;;;;;;;;5076159;27;46101;-73
2021/11/03 02:30:27;;;;;;;;;15.00;13.00;;;;;;;;5075542;28;45411;-73
2021/11/03 02:32:57;;;;;;;;;15.50;15.00;;;;;;;;5075646;27;45417;-72
2021/11/03 02:35:22;;;;;;;;;12.00;11.25;;;;;;;;5075994;27;45336;-74
2021/11/03 02:37:49;;;;;;;;;14.25;13.50;;;;;;;;5075469;27;46231;-72
2021/11/03 02:40:26;;;;;;;;;15.75;13.50;;;;;;;;5074217;28;45452;-73
2021/11/03 02:42:55;;;;;;;;;13.00;10.00;;;;;;;;5075957;28;45332;-73
2021/11/03 02:45:24;;;;;;;;;11.50;11.50;;;;;;;;5075967;28;45537;-74
2021/11/03 02:47:49;;;;;;;;;13.00;12.00;;;;;;;;5075961;28;46097;-73
2021/11/03 02:50:15;;;;;;;;;11.25;10.25;;;;;;;;5075514;28;45347;-72
2021/11/03 02:52:40;;;;;;;;;13.50;11.50;;;;;;;;5076107;27;45342;-69
2021/11/03 02:55:07;;;;;;;;;10.00;7.50;;;;;;;;5076268;28;45182;-73
2021/11/03 02:57:32;;;;;;;;;13.25;9.50;;;;;;;;5075475;27;46204;-72
2021/11/03 02:59:58;;;;;;;;;11.00;11.00;;;;;;;;5075163;28;45364;-71
2021/11/03 03:02:23;;;;;;;;;13.50;9.75;;;;;;;;5074335;28;45295;-72
2021/11/03 03:04:51;;;;;;;;;11.50;10.00;;;;;;;;5075534;27;46043;-72
2021/11/03 03:07:16;;;;;;;;;14.50;10.50;;;;;;;;5074126;27;46072;-71
2021/11/03 03:09:42;;;;;;;;;10.00;9.75;;;;;;;;5075047;28;45163;-70
2021/11/03 03:12:08;;;;;;;;;8.75;8.50;;;;;;;;5075730;28;45405;-72
2021/11/03 03:14:36;;;;;;;;;15.25;9.75;;;;;;;;5076117;27;45182;-71
2021/11/03 03:17:02;;;;;;;;;6.50;6.00;;;;;;;;5074364;27;47068;-71
2021/11/03 03:19:27;;;;;;;;;12.00;9.00;;;;;;;;5073936;28;45582;-71
2021/11/03 03:21:53;;;;;;;;;13.00;10.75;;;;;;;;5075208;28;45341;-73
2021/11/03 03:24:18;;;;;;;;;12.75;11.00;;;;;;;;5075314;28;45265;-70
2021/11/03 03:26:44;;;;;;;;;14.50;9.75;;;;;;;;5076583;27;45372;-70
2021/11/03 03:29:09;;;;;;;;;9.25;9.25;;;;;;;;5078776;27;45390;-72
2021/11/03 03:31:35;;;;;;;;;12.50;10.00;;;;;;;;5078625;27;45429;-71
2021/11/03 03:34:02;;;;;;;;;9.25;5.75;;;;;;;;5078949;27;45531;-71
2021/11/03 03:36:27;;;;;;;;;12.00;7.75;;;;;;;;5078667;27;46309;-73
2021/11/03 03:38:53;;;;;;;;;10.00;8.75;;;;;;;;5078476;27;45385;-72
2021/11/03 03:41:20;;;;;;;;;10.00;10.00;;;;;;;;5078629;27;45273;-73
2021/11/03 03:43:45;;;;;;;;;9.75;8.00;;;;;;;;5078599;27;45305;-72
2021/11/03 03:46:11;;;;;;;;;8.75;8.00;;;;;;;;5078471;27;46698;-70
2021/11/03 03:48:36;;;;;;;;;11.25;8.75;;;;;;;;5078169;27;45343;-72
2021/11/03 03:51:02;;;;;;;;;8.00;8.00;;;;;;;;5077054;27;45730;-73
2021/11/03 03:53:27;;;;;;;;;8.75;8.00;;;;;;;;5077133;28;45354;-70
2021/11/03 03:55:52;;;;;;;;;6.25;4.00;;;;;;;;5076855;27;48303;-72
2021/11/03 03:58:19;;;;;;;;;8.50;6.25;;;;;;;;5078081;27;45366;-70
2021/11/03 04:00:45;;;;;;;;;8.00;8.00;;;;;;;;5078353;27;45321;-71
2021/11/03 04:03:10;;;;;;;;;7.75;7.00;;;;;;;;5078655;27;45349;-72
2021/11/03 04:05:35;;;;;;;;;7.00;7.00;;;;;;;;5077874;27;46242;-72
2021/11/03 04:08:00;;;;;;;;;9.50;7.75;;;;;;;;5077945;28;45343;-72
2021/11/03 04:10:26;;;;;;;;;9.75;7.75;;;;;;;;5076746;28;45421;-72
2021/11/03 04:12:51;;;;;;;;;10.00;7.75;;;;;;;;5078167;27;45644;-73
2021/11/03 04:15:17;;;;;;;;;8.00;8.00;;;;;;;;5077754;27;46471;-72
2021/11/03 04:17:42;;;;;;;;;9.50;9.25;;;;;;;;5078084;27;45245;-71
2021/11/03 04:20:09;;;;;;;;;10.00;8.25;;;;;;;;5077554;27;45357;-71
2021/11/03 04:22:35;;;;;;;;;10.25;9.75;;;;;;;;5078293;27;45826;-73
2021/11/03 04:25:00;;;;;;;;;11.75;11.25;;;;;;;;5076474;28;46946;-71
2021/11/03 04:27:25;;;;;;;;;16.50;15.00;;;;;;;;5077631;28;45177;-72
2021/11/03 04:29:51;;;;;;;;;18.75;17.00;;;;;;;;5077533;27;45332;-72
2021/11/03 04:32:17;;;;;;;;;14.00;12.00;;;;;;;;5077681;27;45415;-70
2021/11/03 04:34:42;;;;;;;;;25.25;22.25;;;;;;;;5077646;27;45741;-71
2021/11/03 04:37:07;;;;;;;;;23.00;21.75;;;;;;;;5077438;28;45290;-71
2021/11/03 04:39:32;;;;;;;;;25.25;22.25;;;;;;;;5077386;28;45482;-71
2021/11/03 04:41:57;;;;;;;;;24.50;21.50;;;;;;;;5077590;28;45550;-73
2021/11/03 04:44:23;;;;;;;;;22.00;21.25;;;;;;;;5077409;27;46074;-73
2021/11/03 04:46:48;;;;;;;;;24.25;22.25;;;;;;;;5077542;28;45408;-73
2021/11/03 04:49:13;;;;;;;;;29.00;24.25;;;;;;;;5077913;27;45371;-73
2021/11/03 04:51:39;;;;;;;;;25.75;24.25;;;;;;;;5076237;28;45360;-73
2021/11/03 04:54:04;;;;;;;;;30.00;25.75;;;;;;;;5076972;27;45303;-73
2021/11/03 04:56:30;;;;;;;;;31.75;27.50;;;;;;;;5077035;28;45356;-73
2021/11/03 04:58:55;;;;;;;;;29.00;24.00;;;;;;;;5077027;27;45393;-71
2021/11/03 05:01:22;;;;;;;;;27.50;24.50;;;;;;;;5077397;27;45456;-72
2021/11/03 05:03:48;;;;;;;;;30.25;27.75;;;;;;;;5076808;27;46371;-72
2021/11/03 05:06:14;;;;;;;;;36.50;27.50;;;;;;;;5077349;28;45231;-72
2021/11/03 05:08:40;;;;;;;;;30.00;24.75;;;;;;;;5077108;28;45242;-73
2021/11/03 05:11:05;;;;;;;;;25.25;23.75;;;;;;;;5077266;27;45152;-70
2021/11/03 05:13:30;;;;;;;;;32.50;29.50;;;;;;;;5075302;28;47003;-71
2021/11/03 05:15:55;;;;;;;;;33.50;31.00;;;;;;;;5076837;28;45257;-71
2021/11/03 05:18:21;;;;;;;;;31.00;29.00;;;;;;;;5076736;28;45192;-72
2021/11/03 05:20:46;;;;;;;;;16.00;9.75;;;;;;;;5077647;27;45548;-72
2021/11/03 05:23:12;;;;;;;;;33.25;31.50;;;;;;;;5076750;27;45536;-73
2021/11/03 05:25:38;;;;;;;;;31.00;27.75;;;;;;;;5076771;28;45254;-72
2021/11/03 05:28:03;;;;;;;;;25.75;24.00;;;;;;;;5076987;27;45247;-73
2021/11/03 05:30:29;;;;;;;;;35.75;27.00;;;;;;;;5077091;28;45270;-73
2021/11/03 05:32:54;;;;;;;;;34.00;28.75;;;;;;;;5076451;27;46283;-71
2021/11/03 05:35:20;;;;;;;;;32.50;28.50;;;;;;;;5076674;27;45353;-73
2021/11/03 05:37:46;;;;;;;;;32.25;26.50;;;;;;;;5077098;27;45318;-72
2021/11/03 05:40:13;;;;;;;;;32.25;26.75;;;;;;;;5076508;28;45432;-72
2021/11/03 05:42:38;;;;;;;;;31.25;25.50;;;;;;;;5074750;27;48259;-71
2021/11/03 05:45:04;;;;;;;;;27.00;26.75;;;;;;;;5076154;27;45236;-70
2021/11/03 05:47:29;;;;;;;;;30.75;25.50;;;;;;;;5076378;28;45291;-73
2021/11/03 05:49:56;;;;;;;;;31.75;26.00;;;;;;;;5075831;27;45613;-72
2021/11/03 05:52:22;;;;;;;;;27.50;25.25;;;;;;;;5074841;28;47264;-71
2021/11/03 05:54:47;;;;;;;;;35.50;29.75;;;;;;;;5076417;27;45337;-72
2021/11/03 05:57:18;;;;;;;;;28.25;25.00;;;;;;;;5076081;28;45256;-73
2021/11/03 05:59:43;;;;;;;;;22.75;20.75;;;;;;;;5076487;27;45349;-72
2021/11/03 06:02:08;;;;;;;;;28.75;25.50;;;;;;;;5075940;27;45858;-71
2021/11/03 06:04:33;;;;;;;;;28.00;23.75;;;;;;;;5075945;27;45544;-74
2021/11/03 06:06:59;;;;;;;;;22.50;22.25;;;;;;;;5076262;28;45306;-72
2021/11/03 06:09:24;;;;;;;;;27.75;24.75;;;;;;;;5076406;27;45515;-72
2021/11/03 06:11:50;;;;;;;;;28.25;25.00;;;;;;;;5076235;27;46107;-73
2021/11/03 06:14:15;;;;;;;;;29.50;24.75;;;;;;;;5076805;27;45366;-72
2021/11/03 06:16:41;;;;;;;;;30.00;28.50;;;;;;;;5076823;28;45178;-73
2021/11/03 06:19:06;;;;;;;;;25.25;24.50;;;;;;;;5076517;27;45226;-72
2021/11/03 06:21:32;;;;;;;;;31.25;25.75;;;;;;;;5076666;27;46162;-72
2021/11/03 06:23:58;;;;;;;;;25.00;24.25;;;;;;;;5075863;28;45376;-72
2021/11/03 06:26:23;;;;;;;;;25.50;22.00;;;;;;;;5074137;28;45345;-73
2021/11/03 06:28:49;;;;;;;;;25.25;23.00;;;;;;;;5076325;27;45560;-73
2021/11/03 06:31:14;;;;;;;;;29.50;23.25;;;;;;;;5075711;27;45283;-73
2021/11/03 06:33:39;;;;;;;;;24.00;23.25;;;;;;;;5075774;28;45314;-73
2021/11/03 06:36:06;;;;;;;;;26.00;23.25;;;;;;;;5075754;27;45496;-73
2021/11/03 06:38:32;;;;;;;;;23.00;21.75;;;;;;;;5076290;27;45349;-71
2021/11/03 06:40:57;;;;;;;;;27.25;24.00;;;;;;;;5075764;27;46307;-74
2021/11/03 06:43:23;;;;;;;;;23.50;19.50;;;;;;;;5075974;27;45536;-74
2021/11/03 06:45:49;;;;;;;;;20.75;20.00;;;;;;;;5075261;28;45236;-73
2021/11/03 06:48:14;;;;;;;;;28.25;25.25;;;;;;;;5075970;28;45191;-71
2021/11/03 06:50:39;;;;;;;;;27.50;23.00;;;;;;;;5075134;28;45486;-72
2021/11/03 06:53:06;;;;;;;;;29.75;28.00;;;;;;;;5074606;27;45369;-69
2021/11/03 06:55:31;;;;;;;;;17.25;17.25;;;;;;;;5075426;27;45543;-68
2021/11/03 06:57:57;;;;;;;;;24.00;22.50;;;;;;;;5075559;27;45439;-69
2021/11/03 07:00:26;;;;;;;;;25.50;23.25;;;;;;;;5075587;27;46048;-72
2021/11/03 07:02:51;;;;;;;;;26.00;21.75;;;;;;;;5079314;27;45394;-70
2021/11/03 07:05:17;;;;;;;;;28.50;22.50;;;;;;;;5079118;27;45368;-68
2021/11/03 07:07:42;;;;;;;;;26.00;24.00;;;;;;;;5079580;27;45472;-71
2021/11/03 07:10:08;;;;;;;;;22.00;20.50;;;;;;;;5078786;27;46127;-69
2021/11/03 07:12:34;;;;;;;;;27.25;24.75;;;;;;;;5079024;27;45257;-67
2021/11/03 07:14:59;;;;;;;;;29.50;25.50;;;;;;;;5077323;27;45381;-70
2021/11/03 07:17:24;;;;;;;;;29.50;26.00;;;;;;;;5079004;27;45330;-69
2021/11/03 07:19:50;;;;;;;;;27.75;24.25;;;;;;;;5079613;27;45355;-67
2021/11/03 07:22:15;;;;;;;;;26.75;22.75;;;;;;;;5078796;27;45333;-68
2021/11/03 07:24:40;;;;;;;;;25.50;24.75;;;;;;;;5077375;27;45338;-71
2021/11/03 07:27:06;;;;;;;;;28.00;25.25;;;;;;;;5079147;27;45195;-67
2021/11/03 07:29:31;;;;;;;;;33.75;28.00;;;;;;;;5078318;27;45458;-72
2021/11/03 07:31:57;;;;;;;;;23.00;22.50;;;;;;;;5076503;27;45376;-69
2021/11/03 07:34:22;;;;;;;;;43.00;32.50;;;;;;;;5078780;27;45903;-70
2021/11/03 07:36:49;;;;;;;;;26.00;21.00;;;;;;;;5078405;28;45610;-75
2021/11/03 07:39:15;;;;;;;;;26.00;26.00;;;;;;;;5074046;27;48145;-71
2021/11/03 07:41:40;;;;;;;;;27.00;23.00;;;;;;;;5070958;28;45534;-70
2021/11/03 07:44:06;;;;;;;;;25.00;24.75;;;;;;;;5076311;27;45452;-71
2021/11/03 07:46:31;;;;;;;;;20.00;20.00;;;;;;;;5073419;27;45551;-71
2021/11/03 07:48:57;;;;;;;;;23.75;19.75;;;;;;;;5071390;27;45470;-70
2021/11/03 07:51:22;;;;;;;;;28.50;23.00;;;;;;;;5090301;27;45335;-71
2021/11/03 07:53:49;;;;;;;;;24.00;20.50;;;;;;;;5083684;27;45385;-72
2021/11/03 07:56:19;;;;;;;;;22.00;22.00;;;;;;;;5097775;27;45206;-69
2021/11/03 07:58:44;;;;;;;;;20.25;19.25;;;;;;;;5097945;27;45354;-69
2021/11/03 08:01:09;;;;;;;;;23.50;21.50;;;;;;;;5083302;27;45506;-71
2021/11/03 08:03:35;;;;;;;;;23.00;21.00;;;;;;;;5097100;27;46000;-71
2021/11/03 08:06:00;;;;;;;;;21.50;19.00;;;;;;;;5091164;27;45524;-71
2021/11/03 08:08:28;;;;;;;;;21.75;19.25;;;;;;;;5074969;27;46707;-70
2021/11/03 08:10:53;;;;;;;;;21.25;20.75;;;;;;;;5077297;27;45421;-74
2021/11/03 08:13:19;;;;;;;;;21.00;18.25;;;;;;;;5076513;27;45299;-70
2021/11/03 08:15:45;;;;;;;;;27.00;24.75;;;;;;;;5077737;27;45204;-73
2021/11/03 08:18:12;;;;;;;;;38.00;25.50;;;;;;;;5076842;27;45640;-72
2021/11/03 08:20:37;;;;;;;;;21.25;20.00;;;;;;;;5077361;27;45461;-74
2021/11/03 08:23:04;;;;;;;;;21.25;18.25;;;;;;;;5077252;27;45474;-76
2021/11/03 08:25:29;;;;;;;;;25.25;21.75;;;;;;;;5077462;27;45440;-71
2021/11/03 08:27:54;;;;;;;;;22.75;21.50;;;;;;;;5078573;27;46349;-73
2021/11/03 08:30:20;;;;;;;;;27.25;25.75;;;;;;;;5073058;27;45438;-72
2021/11/03 08:32:49;;;;;;;;;25.25;22.75;;;;;;;;5078062;27;45812;-75
2021/11/03 08:35:15;;;;;;;;;23.75;21.00;;;;;;;;5077808;27;45497;-72
2021/11/03 08:37:41;;;;;;;;;25.00;23.00;;;;;;;;5077907;27;45687;-72
2021/11/03 08:40:08;;;;;;;;;29.50;24.50;;;;;;;;5077719;27;45283;-73
2021/11/03 08:42:34;;;;;;;;;27.50;22.75;;;;;;;;5080248;27;45430;-73
2021/11/03 08:44:59;;;;;;;;;26.25;23.50;;;;;;;;5079022;28;45375;-73
2021/11/03 08:47:24;;;;;;;;;34.25;25.25;;;;;;;;5077744;27;46624;-72
2021/11/03 08:49:50;;;;;;;;;25.50;24.25;;;;;;;;5077548;27;45415;-75
2021/11/03 08:52:15;;;;;;;;;23.75;20.50;;;;;;;;5078603;27;45372;-78
2021/11/03 08:54:42;;;;;;;;;23.75;19.75;;;;;;;;5078548;27;45564;-73
2021/11/03 08:57:10;;;;;;;;;23.25;19.75;;;;;;;;5077509;27;47544;-70
2021/11/03 08:59:35;;;;;;;;;21.50;20.25;;;;;;;;5077350;27;45193;-73
2021/11/03 09:02:00;;;;;;;;;14.50;14.00;;;;;;;;5077251;27;45323;-72
2021/11/03 09:04:26;;;;;;;;;20.00;18.50;;;;;;;;5078837;27;45244;-72
2021/11/03 09:06:51;;;;;;;;;23.50;20.25;;;;;;;;5078417;27;46142;-71
2021/11/03 09:09:16;;;;;;;;;25.00;20.75;;;;;;;;5077580;27;45321;-71
2021/11/03 09:11:42;;;;;;;;;23.25;18.75;;;;;;;;5078154;27;45461;-71
2021/11/03 09:14:07;;;;;;;;;15.75;15.75;;;;;;;;5078429;27;45285;-71
2021/11/03 09:16:33;;;;;;;;;21.25;17.75;;;;;;;;5078712;27;46389;-73
2021/11/03 09:18:59;;;;;;;;;20.75;19.75;;;;;;;;5077814;27;45420;-72
2021/11/03 09:21:25;;;;;;;;;19.25;19.25;;;;;;;;5077793;27;45605;-71
2021/11/03 09:23:50;;;;;;;;;24.00;20.50;;;;;;;;5075810;28;45462;-72
2021/11/03 09:26:16;;;;;;;;;30.25;25.50;;;;;;;;5076926;27;45439;-72
2021/11/03 09:28:42;;;;;;;;;32.00;28.50;;;;;;;;5076573;27;45322;-73
2021/11/03 09:31:08;;;;;;;;;28.00;20.75;;;;;;;;5078091;27;45319;-73
2021/11/03 09:33:35;;;;;;;;;26.25;21.75;;;;;;;;5077191;27;45419;-71
2021/11/03 09:36:02;;;;;;;;;30.75;28.00;;;;;;;;5076418;27;46122;-72
2021/11/03 09:38:28;;;;;;;;;28.25;26.00;;;;;;;;5075984;27;45416;-72
2021/11/03 09:41:02;;;;;;;;;26.75;26.00;;;;;;;;5077132;27;45419;-74
2021/11/03 09:43:29;;;;;;;;;22.00;22.00;;;;;;;;5077976;27;45331;-74
2021/11/03 09:45:55;;;;;;;;;27.25;23.75;;;;;;;;5077096;27;45421;-76
2021/11/03 09:48:26;;;;;;;;;28.50;27.00;;;;;;;;5077268;27;45896;-73
2021/11/03 09:50:54;;;;;;;;;28.75;27.00;;;;;;;;5077967;27;45392;-75
2021/11/03 09:53:23;;;;;;;;;25.50;22.00;;;;;;;;5079420;27;45584;-72
2021/11/03 09:55:49;;;;;;;;;27.50;22.50;;;;;;;;5082090;27;45542;-76
2021/11/03 09:58:18;;;;;;;;;27.00;24.50;;;;;;;;5080946;27;45242;-77
2021/11/03 10:00:48;;;;;;;;;25.75;24.00;;;;;;;;5079543;27;45436;-74
2021/11/03 10:03:19;;;;;;;;;26.50;24.00;;;;;;;;5077350;27;45573;-74
2021/11/03 10:06:14;;;;;;;;;28.50;26.75;;;;;;;;5076614;27;46779;-72
2021/11/03 10:08:42;;;;;;;;;25.25;22.00;;;;;;;;5066082;27;45436;-75
2021/11/03 10:11:19;;;;;;;;;22.50;21.25;;;;;;;;5080416;27;45360;-73
2021/11/03 10:13:45;;;;;;;;;24.00;20.00;;;;;;;;5081129;27;45334;-76
2021/11/03 10:16:10;;;;;;;;;26.00;22.00;;;;;;;;5081049;27;45415;-75
2021/11/03 10:18:37;;;;;;;;;20.25;17.75;;;;;;;;5080903;27;44788;-78
2021/11/03 10:21:05;;;;;;;;;18.50;17.25;;;;;;;;5079533;27;45323;-72
2021/11/03 10:23:33;;;;;;;;;19.75;19.50;;;;;;;;5078176;27;45347;-72
2021/11/03 10:26:05;;;;;;;;;16.25;14.00;;;;;;;;5077963;27;46974;-72
2021/11/03 10:28:41;;;;;;;;;21.50;19.25;;;;;;;;5076952;28;45389;-75
2021/11/03 10:31:18;;;;;;;;;19.00;17.00;;;;;;;;5076102;28;45397;-73
2021/11/03 10:33:44;;;;;;;;;16.50;15.00;;;;;;;;5077440;27;45371;-76
2021/11/03 10:36:13;;;;;;;;;16.50;15.75;;;;;;;;5080236;27;46178;-72
2021/11/03 10:38:40;;;;;;;;;14.00;14.00;;;;;;;;5083136;27;45458;-72
2021/11/03 10:41:06;;;;;;;;;19.50;18.25;;;;;;;;5081728;27;45312;-72
2021/11/03 10:43:39;;;;;;;;;18.25;16.00;;;;;;;;5080918;27;45599;-72
2021/11/03 10:46:26;;;;;;;;;17.25;17.00;;;;;;;;5079923;27;45495;-73
2021/11/03 10:49:06;;;;;;;;;20.75;19.00;;;;;;;;5079316;27;45258;-74
2021/11/03 10:51:38;;;;;;;;;19.75;17.25;;;;;;;;5080178;27;45545;-76
2021/11/03 10:54:09;;;;;;;;;24.25;19.00;;;;;;;;5080386;27;45563;-73
2021/11/03 10:56:45;;;;;;;;;18.75;18.75;;;;;;;;5078992;27;46987;-73
2021/11/03 10:59:17;;;;;;;;;19.25;17.50;;;;;;;;5079392;27;45519;-75
2021/11/03 11:01:45;;;;;;;;;22.25;21.50;;;;;;;;5079235;27;45416;-71
2021/11/03 11:04:29;;;;;;;;;20.75;19.00;;;;;;;;5079699;27;45533;-77
2021/11/03 11:07:09;;;;;;;;;22.75;20.00;;;;;;;;5078798;27;47102;-76
2021/11/03 11:09:37;;;;;;;;;24.00;22.25;;;;;;;;5080547;27;45240;-73
2021/11/03 11:12:16;;;;;;;;;22.75;19.00;;;;;;;;5080346;27;45437;-74
2021/11/03 11:14:41;;;;;;;;;21.50;20.50;;;;;;;;5080180;27;45411;-75
2021/11/03 11:17:18;;;;;;;;;17.25;14.50;;;;;;;;5077644;27;48231;-74
2021/11/03 11:20:13;;;;;;;;;17.50;16.25;;;;;;;;5079194;27;45195;-72
2021/11/03 11:23:12;;;;;;;;;13.50;13.50;;;;;;;;5065407;28;45236;-74
2021/11/03 11:25:53;;;;;;;;;18.50;17.50;;;;;;;;5045453;27;45436;-73
2021/11/03 11:28:36;;;;;;;;;18.75;14.50;;;;;;;;5079913;28;45715;-77
2021/11/03 11:31:02;;;;;;;;;13.25;13.00;;;;;;;;5081357;27;45289;-74
2021/11/03 11:33:29;;;;;;;;;12.25;11.00;;;;;;;;5078824;28;45387;-73
2021/11/03 11:36:13;;;;;;;;;11.00;10.00;;;;;;;;5079307;27;45197;-72
2021/11/03 11:39:01;;;;;;;;;9.50;9.50;;;;;;;;5078177;27;46206;-75
2021/11/03 11:41:33;;;;;;;;;14.00;10.75;;;;;;;;5078300;28;45525;-73
2021/11/03 11:44:06;;;;;;;;;11.00;10.50;;;;;;;;5078470;27;45347;-72
2021/11/03 11:46:31;;;;;;;;;10.75;8.75;;;;;;;;5079347;27;45542;-71
2021/11/03 11:49:15;;;;;;;;;8.50;7.75;;;;;;;;5079836;27;46864;-72
2021/11/03 11:51:44;;;;;;;;;12.25;8.50;;;;;;;;5079894;27;45344;-72
2021/11/03 11:54:34;;;;;;;;;11.00;9.50;;;;;;;;5079675;27;45144;-76
2021/11/03 11:57:12;;;;;;;;;9.50;8.00;;;;;;;;5079072;27;45448;-76
2021/11/03 11:59:56;;;;;;;;;7.50;7.50;;;;;;;;5078994;27;45568;-73
2021/11/03 12:02:22;;;;;;;;;12.00;7.00;;;;;;;;5078972;27;45318;-74
2021/11/03 12:04:48;;;;;;;;;8.25;8.00;;;;;;;;5077473;27;45228;-72
2021/11/03 12:07:24;;;;;;;;;8.50;8.50;;;;;;;;5078939;27;45560;-72
2021/11/03 12:10:02;;;;;;;;;17.00;14.00;;;;;;;;5078472;28;46273;-73
2021/11/03 12:12:34;;;;;;;;;13.50;9.50;;;;;;;;5079494;27;45413;-74
2021/11/03 12:14:59;;;;;;;;;12.00;10.75;;;;;;;;5079974;27;45166;-72
2021/11/03 12:17:36;;;;;;;;;7.00;7.00;;;;;;;;5079093;27;45217;-73
2021/11/03 12:20:21;;;;;;;;;11.75;9.75;;;;;;;;5078340;27;46082;-72
2021/11/03 12:22:47;;;;;;;;;11.75;11.50;;;;;;;;5076359;28;45358;-75
2021/11/03 12:25:32;;;;;;;;;8.00;6.50;;;;;;;;5077757;27;45370;-76
2021/11/03 12:28:19;;;;;;;;;7.25;6.75;;;;;;;;5077591;28;45366;-72
2021/11/03 12:31:04;;;;;;;;;18.25;15.50;;;;;;;;5062351;28;47171;-73
2021/11/03 12:33:50;;;;;;;;;15.00;13.50;;;;;;;;5067105;27;45517;-75
2021/11/03 12:36:15;;;;;;;;;10.25;8.00;;;;;;;;5078175;27;45456;-75
2021/11/03 12:38:46;;;;;;;;;14.75;12.75;;;;;;;;5078009;27;45508;-76
2021/11/03 12:41:19;;;;;;;;;14.50;13.00;;;;;;;;5077327;27;48245;-74
2021/11/03 12:43:49;;;;;;;;;11.75;10.50;;;;;;;;5078474;27;45293;-74
2021/11/03 12:46:16;;;;;;;;;8.25;8.25;;;;;;;;5078078;27;45377;-73
2021/11/03 12:48:43;;;;;;;;;7.50;7.50;;;;;;;;5078995;28;45464;-73
2021/11/03 12:51:29;;;;;;;;;7.00;6.00;;;;;;;;5077642;27;45254;-73
2021/11/03 12:54:14;;;;;;;;;5.75;5.50;;;;;;;;5077080;27;45376;-72
2021/11/03 12:56:41;;;;;;;;;12.50;9.75;;;;;;;;5077126;28;45352;-72
2021/11/03 12:59:19;;;;;;;;;9.75;7.50;;;;;;;;5077057;28;45365;-74
2021/11/03 13:01:45;;;;;;;;;7.75;7.25;;;;;;;;5077992;27;46132;-74
2021/11/03 13:04:16;;;;;;;;;7.50;7.00;;;;;;;;5078484;27;45416;-71
2021/11/03 13:06:47;;;;;;;;;9.50;9.50;;;;;;;;5078900;27;45430;-72
2021/11/03 13:09:44;;;;;;;;;10.00;9.75;;;;;;;;5078784;27;45470;-75
2021/11/03 13:12:23;;;;;;;;;10.00;9.00;;;;;;;;5043061;27;46419;-73
2021/11/03 13:14:59;;;;;;;;;10.25;9.50;;;;;;;;5077722;27;45418;-74
2021/11/03 13:17:27;;;;;;;;;5.25;5.25;;;;;;;;5077755;27;45475;-77
2021/11/03 13:19:52;;;;;;;;;9.25;8.00;;;;;;;;5077859;27;45469;-72
2021/11/03 13:22:30;;;;;;;;;13.50;12.75;;;;;;;;5079887;27;45371;-72
2021/11/03 13:24:57;;;;;;;;;8.00;7.75;;;;;;;;5080353;27;45348;-72
2021/11/03 13:27:32;;;;;;;;;12.50;10.25;;;;;;;;5078889;27;45435;-72
2021/11/03 13:30:00;;;;;;;;;8.25;7.50;;;;;;;;5079261;27;45365;-73
2021/11/03 13:32:29;;;;;;;;;8.00;8.00;;;;;;;;5078245;27;45555;-76
2021/11/03 13:34:57;;;;;;;;;9.50;5.00;;;;;;;;5077532;27;45218;-72
2021/11/03 13:37:35;;;;;;;;;6.50;6.50;;;;;;;;5077242;28;45438;-73
2021/11/03 13:40:17;;;;;;;;;7.75;7.25;;;;;;;;5077766;27;45555;-72
2021/11/03 13:42:46;;;;;;;;;7.75;7.00;;;;;;;;5078211;27;46460;-72
2021/11/03 13:45:20;;;;;;;;;12.25;10.75;;;;;;;;5078381;27;45363;-74
2021/11/03 13:47:57;;;;;;;;;7.00;7.00;;;;;;;;5077704;27;45375;-74
2021/11/03 13:50:30;;;;;;;;;6.25;5.25;;;;;;;;5077483;27;45778;-71
2021/11/03 13:53:07;;;;;;;;;5.00;5.00;;;;;;;;5075905;27;45529;-76
2021/11/03 13:55:39;;;;;;;;;10.50;7.00;;;;;;;;5077053;27;45753;-72
2021/11/03 13:58:19;;;;;;;;;8.50;8.25;;;;;;;;5077774;27;45381;-72
2021/11/03 14:00:55;;;;;;;;;10.25;8.00;;;;;;;;5078092;27;45526;-72
2021/11/03 14:03:42;;;;;;;;;11.00;8.25;;;;;;;;5077174;27;46674;-72
2021/11/03 14:06:21;;;;;;;;;7.00;6.50;;;;;;;;5076970;27;45383;-76
2021/11/03 14:08:47;;;;;;;;;11.75;8.50;;;;;;;;5077787;27;45320;-73
2021/11/03 14:11:13;;;;;;;;;6.50;6.50;;;;;;;;5076434;27;45587;-73
2021/11/03 14:13:38;;;;;;;;;5.25;5.00;;;;;;;;5076142;27;46107;-71
2021/11/03 14:16:22;;;;;;;;;7.00;5.00;;;;;;;;5076099;27;45164;-71
2021/11/03 14:18:48;;;;;;;;;4.25;2.00;;;;;;;;5076396;27;45222;-75
2021/11/03 14:21:15;;;;;;;;;5.25;4.75;;;;;;;;5076959;27;45243;-71
2021/11/03 14:23:40;;;;;;;;;6.75;4.00;;;;;;;;5076833;27;45300;-73
2021/11/03 14:26:06;;;;;;;;;4.00;4.00;;;;;;;;5077858;27;45366;-72
2021/11/03 14:28:31;;;;;;;;;2.50;2.50;;;;;;;;5077661;28;45468;-72